Time;durP1;ratioP1;P1;durP2;ratioP2;P2;SDS_P1;SDS_P2;PMS_P1;PMS_P2;Temp;Humidity;BMP_temperature;BMP_pressure;BME280_temperature;BME280_humidity;BME280_pressure;Samples;Min_cycle;Max_cycle;Signal;HPM_P1;HPM_P2
2023/12/12 00:00:05;;;;;;;6.95;1.65;;;;;;;;;;2090699;28;20049;-61
2023/12/12 00:01:19;;;;;;;5.95;1.70;;;;;;;;;;2091120;28;20033;-61
2023/12/12 00:02:20;;;;;;;7.88;1.67;;;;;;;;;;2090815;28;20052;-61
2023/12/12 00:03:21;;;;;;;5.78;1.75;;;;;;;;;;2090758;28;20397;-61
2023/12/12 00:04:22;;;;;;;8.00;1.67;;;;;;;;;;2091404;28;20037;-61
2023/12/12 00:05:22;;;;;;;3.40;1.60;;;;;;;;;;2091048;28;20029;-61
2023/12/12 00:06:24;;;;;;;6.30;1.70;;;;;;;;;;2091067;28;20076;-62
2023/12/12 00:07:25;;;;;;;3.67;1.83;;;;;;;;;;2090710;28;20048;-61
2023/12/12 00:08:26;;;;;;;9.73;1.70;;;;;;;;;;2090811;28;20117;-62
2023/12/12 00:09:26;;;;;;;5.00;1.52;;;;;;;;;;2090886;28;20064;-61
2023/12/12 00:10:27;;;;;;;5.95;1.83;;;;;;;;;;2090656;28;20081;-61
2023/12/12 00:11:28;;;;;;;5.57;1.60;;;;;;;;;;2090689;28;20040;-61
2023/12/12 00:12:28;;;;;;;7.53;1.95;;;;;;;;;;2090680;28;20511;-61
2023/12/12 00:13:29;;;;;;;6.38;1.83;;;;;;;;;;2090687;28;20049;-61
2023/12/12 00:14:30;;;;;;;4.78;1.38;;;;;;;;;;2090670;28;20055;-61
2023/12/12 00:15:31;;;;;;;6.13;1.65;;;;;;;;;;2090676;28;20094;-62
2023/12/12 00:16:31;;;;;;;4.38;2.00;;;;;;;;;;2090650;28;20060;-61
2023/12/12 00:17:32;;;;;;;6.82;1.75;;;;;;;;;;2091032;28;20056;-61
2023/12/12 00:18:34;;;;;;;5.07;1.70;;;;;;;;;;2090635;28;20120;-60
2023/12/12 00:19:39;;;;;;;5.28;1.90;;;;;;;;;;2090882;28;20465;-61
2023/12/12 00:20:40;;;;;;;4.93;1.75;;;;;;;;;;2090692;28;20041;-61
2023/12/12 00:21:40;;;;;;;5.50;1.70;;;;;;;;;;2090515;28;20374;-60
2023/12/12 00:22:41;;;;;;;7.82;1.80;;;;;;;;;;2090863;28;20032;-60
2023/12/12 00:23:42;;;;;;;6.55;1.98;;;;;;;;;;2090530;28;20044;-61
2023/12/12 00:24:43;;;;;;;4.10;1.83;;;;;;;;;;2090843;28;20033;-61
2023/12/12 00:25:43;;;;;;;8.25;2.10;;;;;;;;;;2090589;28;20072;-61
2023/12/12 00:26:44;;;;;;;5.35;1.70;;;;;;;;;;2090286;28;20119;-61
2023/12/12 00:27:45;;;;;;;9.25;1.73;;;;;;;;;;2090676;28;20052;-61
2023/12/12 00:28:45;;;;;;;8.52;2.13;;;;;;;;;;2090934;28;20400;-61
2023/12/12 00:29:46;;;;;;;5.13;1.83;;;;;;;;;;2091027;28;20021;-61
2023/12/12 00:30:47;;;;;;;6.45;1.73;;;;;;;;;;2090470;28;20049;-61
2023/12/12 00:31:48;;;;;;;8.60;1.75;;;;;;;;;;2090652;28;20044;-61
2023/12/12 00:32:48;;;;;;;6.82;1.67;;;;;;;;;;2090525;28;20033;-61
2023/12/12 00:33:49;;;;;;;4.45;1.90;;;;;;;;;;2090758;28;20385;-61
2023/12/12 00:34:51;;;;;;;4.53;1.52;;;;;;;;;;2090793;28;20465;-61
2023/12/12 00:35:51;;;;;;;4.55;1.63;;;;;;;;;;2090497;28;20048;-61
2023/12/12 00:36:52;;;;;;;6.03;1.70;;;;;;;;;;2090889;28;20417;-61
2023/12/12 00:37:53;;;;;;;4.25;1.50;;;;;;;;;;2090510;28;20044;-61
2023/12/12 00:38:54;;;;;;;5.13;1.92;;;;;;;;;;2091083;28;20025;-61
2023/12/12 00:39:54;;;;;;;5.93;1.60;;;;;;;;;;2090388;28;20039;-60
2023/12/12 00:40:55;;;;;;;7.80;1.77;;;;;;;;;;2090150;28;20045;-61
2023/12/12 00:41:56;;;;;;;4.85;1.70;;;;;;;;;;2090879;28;20092;-61
2023/12/12 00:42:57;;;;;;;5.40;1.67;;;;;;;;;;2090404;28;20033;-61
2023/12/12 00:43:57;;;;;;;9.52;1.92;;;;;;;;;;2090116;28;20044;-61
2023/12/12 00:44:58;;;;;;;5.13;2.00;;;;;;;;;;2090322;28;20033;-61
2023/12/12 00:45:59;;;;;;;6.88;1.48;;;;;;;;;;2088845;28;20413;-60
2023/12/12 00:47:00;;;;;;;5.72;1.77;;;;;;;;;;2089497;28;20048;-60
2023/12/12 00:48:01;;;;;;;12.52;1.92;;;;;;;;;;2090259;28;20036;-61
2023/12/12 00:49:01;;;;;;;8.40;2.25;;;;;;;;;;2090159;28;20388;-60
2023/12/12 00:50:02;;;;;;;6.80;1.70;;;;;;;;;;2090161;28;20053;-61
2023/12/12 00:51:03;;;;;;;4.32;1.38;;;;;;;;;;2090290;28;20048;-61
2023/12/12 00:52:04;;;;;;;6.22;1.45;;;;;;;;;;2090268;28;20037;-61
2023/12/12 00:53:04;;;;;;;6.63;1.92;;;;;;;;;;2091113;28;20049;-61
2023/12/12 00:54:05;;;;;;;5.05;1.58;;;;;;;;;;2090374;28;20032;-60
2023/12/12 00:55:06;;;;;;;7.82;2.50;;;;;;;;;;2090501;28;20480;-60
2023/12/12 00:56:07;;;;;;;7.43;2.65;;;;;;;;;;2090411;28;20033;-60
2023/12/12 00:57:07;;;;;;;11.73;2.50;;;;;;;;;;2090374;28;20049;-60
2023/12/12 00:58:08;;;;;;;7.30;2.20;;;;;;;;;;2090705;28;20378;-60
2023/12/12 00:59:09;;;;;;;7.38;2.58;;;;;;;;;;2090629;28;20048;-61
2023/12/12 01:00:10;;;;;;;6.45;1.75;;;;;;;;;;2090931;28;20127;-60
2023/12/12 01:01:11;;;;;;;5.75;2.20;;;;;;;;;;2090523;28;20044;-61
2023/12/12 01:02:12;;;;;;;8.73;2.75;;;;;;;;;;2090070;28;20206;-61
2023/12/12 01:03:13;;;;;;;4.90;1.90;;;;;;;;;;2090464;28;20055;-61
2023/12/12 01:04:14;;;;;;;6.57;2.03;;;;;;;;;;2091022;28;20481;-61
2023/12/12 01:05:14;;;;;;;8.02;2.22;;;;;;;;;;2090641;28;20036;-61
2023/12/12 01:06:23;;;;;;;5.93;1.80;;;;;;;;;;2090301;28;20048;-60
2023/12/12 01:07:23;;;;;;;4.50;1.50;;;;;;;;;;2090554;28;20041;-61
2023/12/12 01:08:24;;;;;;;5.22;1.60;;;;;;;;;;2089970;28;20473;-61
2023/12/12 01:09:25;;;;;;;5.80;1.48;;;;;;;;;;2090585;28;20048;-60
2023/12/12 01:10:25;;;;;;;3.92;1.70;;;;;;;;;;2090520;28;20021;-60
2023/12/12 01:11:26;;;;;;;8.48;2.13;;;;;;;;;;2090421;28;20040;-60
2023/12/12 01:12:28;;;;;;;7.35;1.60;;;;;;;;;;2090523;28;20115;-61
2023/12/12 01:13:29;;;;;;;6.32;1.80;;;;;;;;;;2090513;28;20040;-60
2023/12/12 01:14:30;;;;;;;5.95;1.88;;;;;;;;;;2090268;28;20045;-60
2023/12/12 01:15:30;;;;;;;8.30;2.53;;;;;;;;;;2090267;28;20036;-61
2023/12/12 01:16:31;;;;;;;4.53;1.42;;;;;;;;;;2090652;28;20401;-61
2023/12/12 01:17:32;;;;;;;3.85;1.38;;;;;;;;;;2090254;28;20049;-60
2023/12/12 01:18:34;;;;;;;5.25;2.08;;;;;;;;;;2090310;28;20036;-61
2023/12/12 01:19:35;;;;;;;4.28;1.30;;;;;;;;;;2090240;28;20045;-60
2023/12/12 01:20:36;;;;;;;6.78;1.83;;;;;;;;;;2090228;28;20404;-61
2023/12/12 01:21:36;;;;;;;6.03;1.50;;;;;;;;;;2090274;28;20049;-61
2023/12/12 01:22:37;;;;;;;7.50;1.92;;;;;;;;;;2090769;28;20409;-61
2023/12/12 01:23:50;;;;;;;4.05;1.60;;;;;;;;;;2090199;28;20041;-61
2023/12/12 01:24:51;;;;;;;6.13;2.10;;;;;;;;;;2090261;28;20037;-61
2023/12/12 01:25:51;;;;;;;5.18;1.70;;;;;;;;;;2090550;28;20037;-60
2023/12/12 01:26:52;;;;;;;7.20;1.90;;;;;;;;;;2090620;28;20432;-61
2023/12/12 01:27:53;;;;;;;3.38;1.38;;;;;;;;;;2090473;28;20033;-61
2023/12/12 01:28:54;;;;;;;3.10;1.30;;;;;;;;;;2090616;28;20048;-60
2023/12/12 01:29:55;;;;;;;4.55;1.40;;;;;;;;;;2090049;28;20041;-61
2023/12/12 01:30:59;;;;;;;4.15;1.45;;;;;;;;;;2090274;28;20041;-61
2023/12/12 01:31:59;;;;;;;5.40;1.58;;;;;;;;;;2090214;28;20037;-60
2023/12/12 01:33:00;;;;;;;7.75;1.77;;;;;;;;;;2090625;28;20029;-60
2023/12/12 01:34:01;;;;;;;7.43;1.85;;;;;;;;;;2090704;28;20504;-60
2023/12/12 01:35:02;;;;;;;6.18;1.58;;;;;;;;;;2090825;28;20377;-60
2023/12/12 01:36:03;;;;;;;5.50;1.65;;;;;;;;;;2091235;28;20052;-60
2023/12/12 01:37:03;;;;;;;5.00;1.73;;;;;;;;;;2091333;28;20044;-60
2023/12/12 01:38:04;;;;;;;4.75;1.40;;;;;;;;;;2090928;28;20037;-63
2023/12/12 01:39:05;;;;;;;6.80;1.63;;;;;;;;;;2090320;28;20029;-60
2023/12/12 01:40:07;;;;;;;7.85;1.95;;;;;;;;;;2090138;28;20108;-61
2023/12/12 01:41:07;;;;;;;4.43;1.75;;;;;;;;;;2090127;28;20033;-61
2023/12/12 01:42:08;;;;;;;4.82;1.48;;;;;;;;;;2090479;28;20381;-60
2023/12/12 01:43:09;;;;;;;6.60;1.50;;;;;;;;;;2090155;28;20033;-61
2023/12/12 01:44:09;;;;;;;6.18;1.52;;;;;;;;;;2090577;28;20029;-60
2023/12/12 01:45:10;;;;;;;6.43;1.98;;;;;;;;;;2090147;28;20037;-60
2023/12/12 01:46:12;;;;;;;3.72;1.45;;;;;;;;;;2090157;28;20041;-60
2023/12/12 01:47:13;;;;;;;4.53;1.80;;;;;;;;;;2089544;28;20044;-60
2023/12/12 01:48:14;;;;;;;4.63;1.90;;;;;;;;;;2090080;28;20489;-61
2023/12/12 01:49:16;;;;;;;5.95;1.70;;;;;;;;;;2089856;28;20073;-61
2023/12/12 01:50:16;;;;;;;4.50;1.58;;;;;;;;;;2089566;28;20049;-63
2023/12/12 01:51:17;;;;;;;7.15;1.73;;;;;;;;;;2089240;28;20045;-60
2023/12/12 01:52:19;;;;;;;6.10;1.90;;;;;;;;;;2089228;28;20098;-61
2023/12/12 01:53:21;;;;;;;6.97;2.03;;;;;;;;;;2089227;28;20056;-61
2023/12/12 01:54:22;;;;;;;7.10;1.55;;;;;;;;;;2089545;28;20421;-60
2023/12/12 01:55:22;;;;;;;2.85;1.25;;;;;;;;;;2090138;28;20057;-60
2023/12/12 01:56:23;;;;;;;5.43;1.80;;;;;;;;;;2089794;28;20049;-60
2023/12/12 01:57:24;;;;;;;5.72;1.20;;;;;;;;;;2090800;28;20037;-60
2023/12/12 01:58:25;;;;;;;3.88;1.73;;;;;;;;;;2091668;28;20036;-61
2023/12/12 01:59:26;;;;;;;6.05;1.60;;;;;;;;;;2091139;28;20040;-61
2023/12/12 02:00:27;;;;;;;3.20;1.50;;;;;;;;;;2082673;28;20048;-61
2023/12/12 02:01:28;;;;;;;4.38;1.60;;;;;;;;;;2082026;28;20042;-61
2023/12/12 02:02:28;;;;;;;4.95;1.77;;;;;;;;;;2091633;28;20056;-60
2023/12/12 02:03:29;;;;;;;4.85;2.17;;;;;;;;;;2090337;28;20037;-60
2023/12/12 02:04:30;;;;;;;3.28;1.25;;;;;;;;;;2090733;28;20044;-59
2023/12/12 02:05:31;;;;;;;5.88;1.80;;;;;;;;;;2091032;28;20416;-59
2023/12/12 02:06:31;;;;;;;3.95;1.77;;;;;;;;;;2090395;28;20041;-60
2023/12/12 02:07:32;;;;;;;5.68;2.00;;;;;;;;;;2090324;28;20040;-61
2023/12/12 02:08:33;;;;;;;4.47;1.92;;;;;;;;;;2091126;28;20036;-60
2023/12/12 02:09:33;;;;;;;3.25;1.60;;;;;;;;;;2091704;28;20037;-60
2023/12/12 02:10:34;;;;;;;5.72;1.88;;;;;;;;;;2091733;28;20400;-60
2023/12/12 02:11:35;;;;;;;3.63;1.48;;;;;;;;;;2091611;28;20472;-58
2023/12/12 02:12:36;;;;;;;6.13;2.28;;;;;;;;;;2091621;28;20033;-61
2023/12/12 02:13:37;;;;;;;3.90;1.65;;;;;;;;;;2091520;28;20040;-61
2023/12/12 02:14:37;;;;;;;3.47;1.58;;;;;;;;;;2091677;28;20041;-60
2023/12/12 02:15:38;;;;;;;7.80;1.98;;;;;;;;;;2091217;28;20041;-60
2023/12/12 02:16:39;;;;;;;17.30;2.50;;;;;;;;;;2090747;28;20080;-61
2023/12/12 02:17:39;;;;;;;4.05;1.92;;;;;;;;;;2091689;28;20039;-61
2023/12/12 02:18:40;;;;;;;5.22;1.90;;;;;;;;;;2092289;28;20052;-61
2023/12/12 02:19:41;;;;;;;4.72;1.70;;;;;;;;;;2091529;28;20037;-60
2023/12/12 02:20:42;;;;;;;4.78;2.17;;;;;;;;;;2091716;28;20473;-61
2023/12/12 02:21:42;;;;;;;6.18;1.98;;;;;;;;;;2091811;28;20033;-61
2023/12/12 02:22:44;;;;;;;5.88;1.92;;;;;;;;;;2091894;28;20044;-60
2023/12/12 02:23:47;;;;;;;5.80;1.92;;;;;;;;;;2091180;28;20041;-60
2023/12/12 02:24:47;;;;;;;3.95;1.67;;;;;;;;;;2091591;28;20070;-60
2023/12/12 02:25:48;;;;;;;6.28;2.00;;;;;;;;;;2091732;28;20044;-60
2023/12/12 02:26:49;;;;;;;5.57;2.10;;;;;;;;;;2091615;28;20020;-61
2023/12/12 02:27:49;;;;;;;5.90;1.80;;;;;;;;;;2091561;28;20099;-61
2023/12/12 02:28:50;;;;;;;6.72;1.85;;;;;;;;;;2091499;28;20461;-59
2023/12/12 02:29:51;;;;;;;7.47;1.80;;;;;;;;;;2091382;28;20032;-60
2023/12/12 02:30:51;;;;;;;5.18;1.75;;;;;;;;;;2091737;28;20036;-60
2023/12/12 02:31:52;;;;;;;2.97;1.33;;;;;;;;;;2091647;28;20032;-61
2023/12/12 02:32:53;;;;;;;3.10;1.52;;;;;;;;;;2091550;28;20045;-58
2023/12/12 02:33:54;;;;;;;7.00;1.73;;;;;;;;;;2091860;28;20404;-59
2023/12/12 02:34:54;;;;;;;4.20;1.48;;;;;;;;;;2091655;28;20037;-58
2023/12/12 02:35:55;;;;;;;4.68;1.45;;;;;;;;;;2091452;28;20033;-61
2023/12/12 02:36:56;;;;;;;5.03;1.67;;;;;;;;;;2091343;28;20029;-59
2023/12/12 02:37:57;;;;;;;6.10;1.75;;;;;;;;;;2091493;28;20037;-61
2023/12/12 02:38:57;;;;;;;5.05;1.73;;;;;;;;;;2091288;28;20083;-60
2023/12/12 02:39:58;;;;;;;4.38;1.77;;;;;;;;;;2091368;28;20385;-60
2023/12/12 02:40:59;;;;;;;4.18;1.50;;;;;;;;;;2090196;28;20055;-60
2023/12/12 02:41:59;;;;;;;3.85;1.50;;;;;;;;;;2090527;28;20036;-64
2023/12/12 02:43:00;;;;;;;2.35;1.05;;;;;;;;;;2091400;28;20051;-60
2023/12/12 02:44:01;;;;;;;10.88;2.17;;;;;;;;;;2091419;28;20044;-60
2023/12/12 02:45:02;;;;;;;3.28;1.40;;;;;;;;;;2091831;28;20385;-59
2023/12/12 02:46:02;;;;;;;2.47;1.38;;;;;;;;;;2092201;28;20470;-59
2023/12/12 02:47:03;;;;;;;4.65;1.65;;;;;;;;;;2091408;28;20098;-59
2023/12/12 02:48:04;;;;;;;4.90;1.73;;;;;;;;;;2091304;28;20036;-60
2023/12/12 02:49:05;;;;;;;4.93;1.60;;;;;;;;;;2091586;28;20075;-59
2023/12/12 02:50:06;;;;;;;4.78;1.65;;;;;;;;;;2091356;28;20072;-59
2023/12/12 02:51:07;;;;;;;4.18;1.45;;;;;;;;;;2092168;28;20476;-59
2023/12/12 02:52:08;;;;;;;4.82;1.83;;;;;;;;;;2091420;28;20389;-59
2023/12/12 02:53:08;;;;;;;3.90;1.50;;;;;;;;;;2091299;28;20032;-61
2023/12/12 02:54:09;;;;;;;7.78;1.65;;;;;;;;;;2090955;28;20048;-61
2023/12/12 02:55:10;;;;;;;3.83;1.63;;;;;;;;;;2091702;28;20033;-59
2023/12/12 02:56:11;;;;;;;8.52;1.88;;;;;;;;;;2091493;28;20040;-59
2023/12/12 02:57:11;;;;;;;5.03;1.98;;;;;;;;;;2091453;28;20060;-61
2023/12/12 02:58:12;;;;;;;4.65;2.33;;;;;;;;;;2091328;28;20382;-59
2023/12/12 02:59:13;;;;;;;4.15;1.55;;;;;;;;;;2090915;28;20044;-59
2023/12/12 03:00:14;;;;;;;4.80;1.73;;;;;;;;;;2091008;28;20060;-59
2023/12/12 03:01:14;;;;;;;5.88;1.77;;;;;;;;;;2091595;28;20048;-59
2023/12/12 03:02:15;;;;;;;3.45;1.70;;;;;;;;;;2091620;28;20060;-60
2023/12/12 03:03:16;;;;;;;3.85;1.75;;;;;;;;;;2091209;28;20485;-60
2023/12/12 03:04:17;;;;;;;5.22;1.88;;;;;;;;;;2091909;28;20033;-61
2023/12/12 03:05:17;;;;;;;5.18;1.80;;;;;;;;;;2091343;28;20029;-61
2023/12/12 03:06:18;;;;;;;4.63;2.17;;;;;;;;;;2091352;28;20040;-60
2023/12/12 03:07:19;;;;;;;6.50;1.88;;;;;;;;;;2091323;28;20045;-60
2023/12/12 03:08:20;;;;;;;6.18;1.90;;;;;;;;;;2089852;28;20040;-60
2023/12/12 03:09:20;;;;;;;4.25;2.00;;;;;;;;;;2090006;28;20037;-61
2023/12/12 03:10:21;;;;;;;3.35;1.77;;;;;;;;;;2091832;28;20052;-61
2023/12/12 03:11:22;;;;;;;7.72;2.03;;;;;;;;;;2091176;28;20429;-61
2023/12/12 03:12:22;;;;;;;5.40;2.50;;;;;;;;;;2091472;28;20041;-59
2023/12/12 03:13:23;;;;;;;4.63;2.33;;;;;;;;;;2091174;28;20033;-61
2023/12/12 03:14:25;;;;;;;4.70;2.15;;;;;;;;;;2091066;28;20143;-61
2023/12/12 03:15:26;;;;;;;5.03;2.20;;;;;;;;;;2091129;28;20049;-60
2023/12/12 03:16:27;;;;;;;4.60;2.40;;;;;;;;;;2091128;28;20041;-58
2023/12/12 03:17:28;;;;;;;4.82;2.20;;;;;;;;;;2091189;28;20040;-61
2023/12/12 03:18:28;;;;;;;4.75;2.20;;;;;;;;;;2092011;28;20393;-59
2023/12/12 03:19:29;;;;;;;3.80;2.30;;;;;;;;;;2091754;28;20040;-60
2023/12/12 03:20:30;;;;;;;5.63;2.15;;;;;;;;;;2091222;28;20103;-61
2023/12/12 03:21:31;;;;;;;3.38;1.90;;;;;;;;;;2091097;28;20041;-60
2023/12/12 03:22:31;;;;;;;5.90;2.47;;;;;;;;;;2091078;28;20040;-60
2023/12/12 03:23:32;;;;;;;8.77;3.20;;;;;;;;;;2091744;28;20044;-61
2023/12/12 03:24:33;;;;;;;4.60;2.50;;;;;;;;;;2091259;28;20040;-59
2023/12/12 03:25:33;;;;;;;6.13;2.83;;;;;;;;;;2090917;28;20033;-58
2023/12/12 03:26:34;;;;;;;5.65;2.67;;;;;;;;;;2091083;28;20500;-61
2023/12/12 03:27:35;;;;;;;4.53;2.63;;;;;;;;;;2091092;28;20096;-59
2023/12/12 03:28:35;;;;;;;4.05;2.45;;;;;;;;;;2091681;28;20041;-61
2023/12/12 03:29:36;;;;;;;5.32;2.35;;;;;;;;;;2090994;28;20041;-60
2023/12/12 03:30:37;;;;;;;6.28;2.50;;;;;;;;;;2091386;28;20361;-59
2023/12/12 03:31:39;;;;;;;5.03;2.58;;;;;;;;;;2091563;28;20052;-60
2023/12/12 03:32:39;;;;;;;5.00;2.75;;;;;;;;;;2091316;28;20488;-61
2023/12/12 03:33:40;;;;;;;4.45;2.17;;;;;;;;;;2091420;28;20040;-59
2023/12/12 03:34:41;;;;;;;5.07;2.63;;;;;;;;;;2091289;28;20032;-58
2023/12/12 03:35:42;;;;;;;5.30;2.67;;;;;;;;;;2091405;28;20037;-59
2023/12/12 03:36:42;;;;;;;6.28;2.53;;;;;;;;;;2090998;28;20090;-59
2023/12/12 03:37:43;;;;;;;6.45;2.55;;;;;;;;;;2091240;28;20047;-59
2023/12/12 03:38:44;;;;;;;4.38;2.22;;;;;;;;;;2091040;28;20052;-59
2023/12/12 03:39:45;;;;;;;6.10;2.60;;;;;;;;;;2090931;28;20393;-59
2023/12/12 03:40:45;;;;;;;5.68;2.45;;;;;;;;;;2090974;28;20080;-59
2023/12/12 03:41:46;;;;;;;3.58;2.33;;;;;;;;;;2091044;28;20049;-59
2023/12/12 03:42:47;;;;;;;6.55;2.40;;;;;;;;;;2091034;28;20045;-59
2023/12/12 03:43:47;;;;;;;4.90;3.00;;;;;;;;;;2090867;28;20053;-59
2023/12/12 03:44:48;;;;;;;4.20;2.65;;;;;;;;;;2090934;28;20039;-59
2023/12/12 03:45:49;;;;;;;4.20;2.30;;;;;;;;;;2090713;28;20429;-60
2023/12/12 03:46:50;;;;;;;4.68;2.13;;;;;;;;;;2090926;28;20029;-60
2023/12/12 03:47:50;;;;;;;4.38;2.47;;;;;;;;;;2090887;28;20044;-59
2023/12/12 03:48:51;;;;;;;4.15;2.75;;;;;;;;;;2091022;28;20464;-61
2023/12/12 03:49:52;;;;;;;6.65;2.40;;;;;;;;;;2090901;28;20037;-60
2023/12/12 03:50:52;;;;;;;4.20;2.40;;;;;;;;;;2091031;28;20025;-59
2023/12/12 03:51:53;;;;;;;7.93;2.30;;;;;;;;;;2091625;28;20037;-59
2023/12/12 03:52:54;;;;;;;4.95;2.00;;;;;;;;;;2090946;28;20047;-59
2023/12/12 03:53:54;;;;;;;4.70;2.05;;;;;;;;;;2090621;28;20484;-59
2023/12/12 03:54:55;;;;;;;4.63;2.10;;;;;;;;;;2091105;28;20017;-59
2023/12/12 03:55:56;;;;;;;4.28;2.10;;;;;;;;;;2090732;28;20036;-60
2023/12/12 03:56:57;;;;;;;4.20;2.30;;;;;;;;;;2090816;28;20067;-58
2023/12/12 03:57:57;;;;;;;4.65;2.15;;;;;;;;;;2091147;28;20048;-59
2023/12/12 03:58:58;;;;;;;8.95;2.38;;;;;;;;;;2090762;28;20381;-59
2023/12/12 03:59:59;;;;;;;4.20;2.08;;;;;;;;;;2090696;28;20060;-59
2023/12/12 04:00:59;;;;;;;5.43;1.90;;;;;;;;;;2090830;28;20040;-59
2023/12/12 04:02:00;;;;;;;5.28;2.10;;;;;;;;;;2090699;28;20036;-60
2023/12/12 04:03:01;;;;;;;3.30;1.90;;;;;;;;;;2091434;28;20045;-58
2023/12/12 04:04:02;;;;;;;3.15;1.80;;;;;;;;;;2091563;28;20037;-59
2023/12/12 04:05:03;;;;;;;2.65;2.00;;;;;;;;;;2090392;28;20366;-60
2023/12/12 04:06:03;;;;;;;3.08;2.03;;;;;;;;;;2090718;28;20044;-60
2023/12/12 04:07:04;;;;;;;3.00;1.90;;;;;;;;;;2091382;28;20048;-60
2023/12/12 04:08:05;;;;;;;4.13;2.10;;;;;;;;;;2090017;28;20041;-59
2023/12/12 04:09:06;;;;;;;4.47;2.20;;;;;;;;;;2090623;28;20047;-60
2023/12/12 04:10:07;;;;;;;8.00;2.30;;;;;;;;;;2090683;28;20045;-59
2023/12/12 04:11:07;;;;;;;5.32;2.38;;;;;;;;;;2090976;28;20036;-59
2023/12/12 04:12:08;;;;;;;4.15;2.35;;;;;;;;;;2090855;28;20039;-60
2023/12/12 04:13:09;;;;;;;5.57;2.20;;;;;;;;;;2090813;28;20045;-60
2023/12/12 04:14:09;;;;;;;3.42;2.38;;;;;;;;;;2090895;28;20052;-60
2023/12/12 04:15:10;;;;;;;4.00;2.20;;;;;;;;;;2090659;28;20392;-60
2023/12/12 04:16:11;;;;;;;3.47;1.50;;;;;;;;;;2090938;28;20029;-60
2023/12/12 04:17:12;;;;;;;4.10;2.35;;;;;;;;;;2090661;28;20048;-59
2023/12/12 04:18:12;;;;;;;3.63;1.75;;;;;;;;;;2090539;28;20120;-60
2023/12/12 04:19:13;;;;;;;3.45;1.90;;;;;;;;;;2091352;28;20041;-60
2023/12/12 04:20:14;;;;;;;3.97;2.05;;;;;;;;;;2090386;28;20032;-59
2023/12/12 04:21:14;;;;;;;4.93;2.00;;;;;;;;;;2090717;28;20525;-60
2023/12/12 04:22:15;;;;;;;5.22;2.35;;;;;;;;;;2090572;28;20401;-60
2023/12/12 04:23:16;;;;;;;4.70;2.35;;;;;;;;;;2091067;28;20025;-60
2023/12/12 04:24:17;;;;;;;3.60;1.92;;;;;;;;;;2091036;28;20045;-60
2023/12/12 04:25:19;;;;;;;4.20;2.28;;;;;;;;;;2090522;28;20068;-60
2023/12/12 04:26:20;;;;;;;6.70;2.15;;;;;;;;;;2090900;28;20381;-60
2023/12/12 04:27:21;;;;;;;3.17;2.25;;;;;;;;;;2090493;28;20044;-60
2023/12/12 04:28:21;;;;;;;4.15;2.08;;;;;;;;;;2090475;28;20511;-60
2023/12/12 04:29:22;;;;;;;2.97;2.03;;;;;;;;;;2091343;28;20037;-60
2023/12/12 04:30:23;;;;;;;5.10;2.20;;;;;;;;;;2090480;28;20082;-60
2023/12/12 04:31:23;;;;;;;4.00;2.40;;;;;;;;;;2091017;28;20052;-59
2023/12/12 04:32:24;;;;;;;4.13;2.00;;;;;;;;;;2090714;28;20025;-60
2023/12/12 04:33:25;;;;;;;6.85;2.10;;;;;;;;;;2090779;28;20033;-59
2023/12/12 04:34:25;;;;;;;5.15;1.90;;;;;;;;;;2091161;28;20045;-60
2023/12/12 04:35:26;;;;;;;5.07;2.13;;;;;;;;;;2090560;28;20032;-60
2023/12/12 04:36:27;;;;;;;4.43;2.30;;;;;;;;;;2090770;28;20511;-60
2023/12/12 04:37:28;;;;;;;3.20;2.08;;;;;;;;;;2090826;28;20021;-60
2023/12/12 04:38:28;;;;;;;3.22;2.30;;;;;;;;;;2090444;28;20037;-60
2023/12/12 04:39:29;;;;;;;5.72;2.78;;;;;;;;;;2090620;28;20048;-60
2023/12/12 04:40:30;;;;;;;5.90;2.60;;;;;;;;;;2090598;28;20132;-60
2023/12/12 04:41:30;;;;;;;7.68;2.60;;;;;;;;;;2090739;28;20037;-60
2023/12/12 04:42:31;;;;;;;3.97;2.25;;;;;;;;;;2090472;28;20060;-60
2023/12/12 04:43:32;;;;;;;4.78;2.47;;;;;;;;;;2090529;28;20037;-60
2023/12/12 04:44:33;;;;;;;3.45;2.00;;;;;;;;;;2090458;28;20116;-60
2023/12/12 04:45:34;;;;;;;6.70;2.55;;;;;;;;;;2090116;28;20071;-59
2023/12/12 04:46:34;;;;;;;5.35;2.58;;;;;;;;;;2089929;28;20029;-59
2023/12/12 04:47:35;;;;;;;6.18;2.60;;;;;;;;;;2090962;28;20025;-59
2023/12/12 04:48:36;;;;;;;4.32;2.20;;;;;;;;;;2090423;28;20041;-60
2023/12/12 04:49:36;;;;;;;3.92;2.25;;;;;;;;;;2090420;28;20037;-60
2023/12/12 04:50:37;;;;;;;3.78;2.08;;;;;;;;;;2090423;28;20362;-61
2023/12/12 04:51:38;;;;;;;3.80;1.90;;;;;;;;;;2090381;28;20055;-60
2023/12/12 04:52:39;;;;;;;4.32;2.17;;;;;;;;;;2091068;28;20401;-59
2023/12/12 04:53:39;;;;;;;5.50;2.47;;;;;;;;;;2090795;28;20045;-60
2023/12/12 04:54:40;;;;;;;4.03;2.40;;;;;;;;;;2090740;28;20040;-60
2023/12/12 04:55:41;;;;;;;5.18;2.33;;;;;;;;;;2090384;28;20059;-60
2023/12/12 04:56:41;;;;;;;4.45;2.67;;;;;;;;;;2091038;28;20048;-59
2023/12/12 04:57:43;;;;;;;4.07;2.50;;;;;;;;;;2090806;28;20045;-60
2023/12/12 04:58:43;;;;;;;4.47;1.92;;;;;;;;;;2090635;28;20045;-59
2023/12/12 04:59:45;;;;;;;3.45;2.20;;;;;;;;;;2090381;28;20473;-60
2023/12/12 05:00:45;;;;;;;4.85;2.53;;;;;;;;;;2090387;28;20053;-60
2023/12/12 05:01:46;;;;;;;3.65;2.33;;;;;;;;;;2090551;28;20053;-59
2023/12/12 05:02:47;;;;;;;5.15;2.60;;;;;;;;;;2090292;28;20048;-60
2023/12/12 05:03:48;;;;;;;5.55;2.30;;;;;;;;;;2090192;28;20029;-59
2023/12/12 05:04:48;;;;;;;3.25;1.80;;;;;;;;;;2090453;28;20059;-60
2023/12/12 05:05:49;;;;;;;3.55;1.98;;;;;;;;;;2090383;28;20048;-60
2023/12/12 05:06:50;;;;;;;3.17;1.70;;;;;;;;;;2090262;28;20040;-60
2023/12/12 05:07:51;;;;;;;4.03;1.70;;;;;;;;;;2089614;28;20366;-59
2023/12/12 05:08:51;;;;;;;2.10;1.45;;;;;;;;;;2090323;28;20036;-60
2023/12/12 05:09:52;;;;;;;3.55;1.50;;;;;;;;;;2090692;28;20036;-60
2023/12/12 05:10:54;;;;;;;1.92;1.30;;;;;;;;;;2090705;28;20416;-59
2023/12/12 05:11:54;;;;;;;2.95;1.73;;;;;;;;;;2090264;28;20040;-59
2023/12/12 05:12:55;;;;;;;3.53;1.60;;;;;;;;;;2090399;28;20033;-60
2023/12/12 05:13:58;;;;;;;3.08;1.50;;;;;;;;;;2090278;28;20043;-60
2023/12/12 05:14:59;;;;;;;4.30;1.60;;;;;;;;;;2090291;28;20041;-58
2023/12/12 05:16:00;;;;;;;2.50;1.30;;;;;;;;;;2090272;28;20116;-60
2023/12/12 05:17:01;;;;;;;1.98;1.15;;;;;;;;;;2090199;28;20045;-60
2023/12/12 05:18:02;;;;;;;2.38;1.25;;;;;;;;;;2090340;28;20052;-60
2023/12/12 05:19:03;;;;;;;1.88;1.10;;;;;;;;;;2090144;28;20041;-60
2023/12/12 05:20:04;;;;;;;1.40;0.90;;;;;;;;;;2090423;28;20037;-59
2023/12/12 05:21:05;;;;;;;3.13;1.13;;;;;;;;;;2090211;28;20047;-59
2023/12/12 05:22:06;;;;;;;1.33;0.90;;;;;;;;;;2090364;28;20121;-59
2023/12/12 05:23:07;;;;;;;1.73;1.02;;;;;;;;;;2089935;28;20059;-60
2023/12/12 05:24:07;;;;;;;2.95;1.10;;;;;;;;;;2089674;28;20106;-60
2023/12/12 05:25:08;;;;;;;1.27;0.85;;;;;;;;;;2090092;28;20045;-59
2023/12/12 05:26:09;;;;;;;2.13;0.80;;;;;;;;;;2089682;28;20095;-59
2023/12/12 05:27:10;;;;;;;2.47;1.17;;;;;;;;;;2089751;28;20029;-59
2023/12/12 05:28:10;;;;;;;2.35;1.02;;;;;;;;;;2089934;28;20052;-59
2023/12/12 05:29:11;;;;;;;1.73;0.73;;;;;;;;;;2089546;28;20045;-59
2023/12/12 05:30:12;;;;;;;3.15;1.05;;;;;;;;;;2089604;28;20413;-59
2023/12/12 05:31:13;;;;;;;2.28;1.30;;;;;;;;;;2090534;28;20045;-58
2023/12/12 05:32:13;;;;;;;2.92;1.52;;;;;;;;;;2092055;28;20025;-59
2023/12/12 05:33:14;;;;;;;2.33;1.02;;;;;;;;;;2093313;28;20064;-61
2023/12/12 05:34:15;;;;;;;1.73;0.85;;;;;;;;;;2093337;28;20370;-62
2023/12/12 05:35:16;;;;;;;1.98;0.90;;;;;;;;;;2094044;28;20469;-60
2023/12/12 05:36:16;;;;;;;1.35;0.70;;;;;;;;;;2093506;28;20069;-60
2023/12/12 05:37:17;;;;;;;2.75;1.25;;;;;;;;;;2093823;28;20047;-58
2023/12/12 05:38:18;;;;;;;2.22;0.80;;;;;;;;;;2093714;28;20082;-59
2023/12/12 05:39:18;;;;;;;2.40;0.80;;;;;;;;;;2093851;28;20041;-60
2023/12/12 05:40:19;;;;;;;1.38;0.75;;;;;;;;;;2094271;28;20089;-61
2023/12/12 05:41:20;;;;;;;1.75;0.98;;;;;;;;;;2093210;28;20491;-60
2023/12/12 05:42:20;;;;;;;1.35;0.68;;;;;;;;;;2093562;28;20041;-61
2023/12/12 05:43:21;;;;;;;2.38;0.95;;;;;;;;;;2093296;28;20025;-58
2023/12/12 05:44:23;;;;;;;2.83;0.95;;;;;;;;;;2092901;28;20048;-58
2023/12/12 05:45:24;;;;;;;1.63;0.73;;;;;;;;;;2092876;28;20157;-58
2023/12/12 05:46:25;;;;;;;1.95;0.75;;;;;;;;;;2092963;28;20094;-59
2023/12/12 05:47:26;;;;;;;1.65;0.70;;;;;;;;;;2093416;28;20394;-59
2023/12/12 05:48:26;;;;;;;0.80;0.52;;;;;;;;;;2092865;28;20049;-61
2023/12/12 05:49:27;;;;;;;2.78;0.88;;;;;;;;;;2093193;28;20044;-60
2023/12/12 05:50:28;;;;;;;1.70;0.88;;;;;;;;;;2093085;28;20056;-60
2023/12/12 05:51:29;;;;;;;1.23;0.75;;;;;;;;;;2093054;28;20502;-59
2023/12/12 05:52:30;;;;;;;1.60;0.65;;;;;;;;;;2092990;28;20040;-60
2023/12/12 05:53:31;;;;;;;0.90;0.60;;;;;;;;;;2093151;28;20052;-59
2023/12/12 05:54:31;;;;;;;0.95;0.60;;;;;;;;;;2092860;28;20079;-60
2023/12/12 05:55:32;;;;;;;0.82;0.60;;;;;;;;;;2092534;28;20117;-60
2023/12/12 05:56:33;;;;;;;1.05;0.68;;;;;;;;;;2093534;28;20055;-60
2023/12/12 05:57:33;;;;;;;1.83;0.70;;;;;;;;;;2092572;28;20045;-59
2023/12/12 05:58:34;;;;;;;0.82;0.60;;;;;;;;;;2092792;28;20370;-60
2023/12/12 05:59:36;;;;;;;1.95;1.00;;;;;;;;;;2093869;28;20044;-60
2023/12/12 06:00:36;;;;;;;0.82;0.50;;;;;;;;;;2092577;28;20056;-60
2023/12/12 06:01:39;;;;;;;2.13;0.80;;;;;;;;;;2092617;28;20420;-60
2023/12/12 06:02:40;;;;;;;1.10;0.70;;;;;;;;;;2093352;28;20040;-60
2023/12/12 06:03:42;;;;;;;0.82;0.68;;;;;;;;;;2093116;28;20370;-60
2023/12/12 06:04:46;;;;;;;1.48;0.70;;;;;;;;;;2092845;28;20045;-61